sensor_id;sensor_type;location;lat;lon;timestamp;P1;durP1;ratioP1;P2;durP2;ratioP2
56507;SDS011;42403;53.160;6.368;2023-05-29T00:01:00;0.10;;;0.10;;
56507;SDS011;42403;53.160;6.368;2023-05-29T00:03:26;3.30;;;2.05;;
56507;SDS011;42403;53.160;6.368;2023-05-29T00:05:52;0.10;;;0.10;;
56507;SDS011;42403;53.160;6.368;2023-05-29T00:08:18;0.10;;;0.10;;
56507;SDS011;42403;53.160;6.368;2023-05-29T00:10:44;0.10;;;0.10;;
56507;SDS011;42403;53.160;6.368;2023-05-29T00:13:10;0.00;;;0.00;;
56507;SDS011;42403;53.160;6.368;2023-05-29T00:15:36;0.10;;;0.10;;
56507;SDS011;42403;53.160;6.368;2023-05-29T00:18:02;0.00;;;0.00;;
56507;SDS011;42403;53.160;6.368;2023-05-29T00:20:28;0.10;;;0.10;;
56507;SDS011;42403;53.160;6.368;2023-05-29T00:22:54;0.10;;;0.10;;
56507;SDS011;42403;53.160;6.368;2023-05-29T00:25:20;0.10;;;0.10;;
56507;SDS011;42403;53.160;6.368;2023-05-29T00:27:46;0.10;;;0.10;;
56507;SDS011;42403;53.160;6.368;2023-05-29T00:30:12;0.00;;;0.00;;
56507;SDS011;42403;53.160;6.368;2023-05-29T00:32:38;0.00;;;0.00;;
56507;SDS011;42403;53.160;6.368;2023-05-29T00:35:06;0.10;;;0.10;;
56507;SDS011;42403;53.160;6.368;2023-05-29T00:37:32;0.10;;;0.10;;
56507;SDS011;42403;53.160;6.368;2023-05-29T00:39:58;0.10;;;0.10;;
56507;SDS011;42403;53.160;6.368;2023-05-29T00:42:24;0.10;;;0.10;;
56507;SDS011;42403;53.160;6.368;2023-05-29T00:44:50;0.10;;;0.10;;
56507;SDS011;42403;53.160;6.368;2023-05-29T00:47:16;0.10;;;0.10;;
56507;SDS011;42403;53.160;6.368;2023-05-29T00:49:42;0.28;;;0.28;;
56507;SDS011;42403;53.160;6.368;2023-05-29T00:52:08;0.10;;;0.10;;
56507;SDS011;42403;53.160;6.368;2023-05-29T00:54:35;0.10;;;0.10;;
56507;SDS011;42403;53.160;6.368;2023-05-29T00:57:01;0.10;;;0.10;;
56507;SDS011;42403;53.160;6.368;2023-05-29T00:59:31;0.10;;;0.10;;
56507;SDS011;42403;53.160;6.368;2023-05-29T01:01:58;0.10;;;0.10;;
56507;SDS011;42403;53.160;6.368;2023-05-29T01:04:25;0.10;;;0.10;;
56507;SDS011;42403;53.160;6.368;2023-05-29T01:06:51;0.10;;;0.10;;
56507;SDS011;42403;53.160;6.368;2023-05-29T01:09:17;0.10;;;0.10;;
56507;SDS011;42403;53.160;6.368;2023-05-29T01:11:50;0.40;;;0.40;;
56507;SDS011;42403;53.160;6.368;2023-05-29T01:17:04;0.10;;;0.10;;
56507;SDS011;42403;53.160;6.368;2023-05-29T01:22:12;0.10;;;0.10;;
56507;SDS011;42403;53.160;6.368;2023-05-29T01:27:09;0.10;;;0.10;;
56507;SDS011;42403;53.160;6.368;2023-05-29T01:29:37;0.10;;;0.10;;
56507;SDS011;42403;53.160;6.368;2023-05-29T01:32:03;0.10;;;0.10;;
56507;SDS011;42403;53.160;6.368;2023-05-29T01:34:30;0.10;;;0.10;;
56507;SDS011;42403;53.160;6.368;2023-05-29T01:36:56;0.10;;;0.10;;
56507;SDS011;42403;53.160;6.368;2023-05-29T01:39:23;0.13;;;0.13;;
56507;SDS011;42403;53.160;6.368;2023-05-29T01:41:50;0.10;;;0.10;;
56507;SDS011;42403;53.160;6.368;2023-05-29T01:44:17;0.00;;;0.00;;
56507;SDS011;42403;53.160;6.368;2023-05-29T01:46:43;0.10;;;0.10;;
56507;SDS011;42403;53.160;6.368;2023-05-29T01:49:11;0.10;;;0.10;;
56507;SDS011;42403;53.160;6.368;2023-05-29T01:51:40;0.10;;;0.10;;
56507;SDS011;42403;53.160;6.368;2023-05-29T01:54:06;0.10;;;0.10;;
56507;SDS011;42403;53.160;6.368;2023-05-29T01:56:33;0.10;;;0.10;;
56507;SDS011;42403;53.160;6.368;2023-05-29T01:59:00;0.10;;;0.10;;
56507;SDS011;42403;53.160;6.368;2023-05-29T02:01:27;0.10;;;0.10;;
56507;SDS011;42403;53.160;6.368;2023-05-29T02:03:53;0.10;;;0.10;;
56507;SDS011;42403;53.160;6.368;2023-05-29T02:06:19;0.00;;;0.00;;
56507;SDS011;42403;53.160;6.368;2023-05-29T02:08:46;0.10;;;0.10;;
56507;SDS011;42403;53.160;6.368;2023-05-29T02:11:12;0.10;;;0.10;;
56507;SDS011;42403;53.160;6.368;2023-05-29T02:13:38;0.10;;;0.10;;
56507;SDS011;42403;53.160;6.368;2023-05-29T02:16:04;0.10;;;0.10;;
56507;SDS011;42403;53.160;6.368;2023-05-29T02:18:31;0.10;;;0.10;;
56507;SDS011;42403;53.160;6.368;2023-05-29T02:20:57;0.10;;;0.10;;
56507;SDS011;42403;53.160;6.368;2023-05-29T02:23:23;0.10;;;0.10;;
56507;SDS011;42403;53.160;6.368;2023-05-29T02:25:49;0.10;;;0.10;;
56507;SDS011;42403;53.160;6.368;2023-05-29T02:28:15;0.10;;;0.10;;
56507;SDS011;42403;53.160;6.368;2023-05-29T02:30:41;0.10;;;0.10;;
56507;SDS011;42403;53.160;6.368;2023-05-29T02:33:07;0.10;;;0.10;;
56507;SDS011;42403;53.160;6.368;2023-05-29T02:35:33;0.20;;;0.20;;
56507;SDS011;42403;53.160;6.368;2023-05-29T02:37:59;0.10;;;0.10;;
56507;SDS011;42403;53.160;6.368;2023-05-29T02:40:25;0.10;;;0.10;;
56507;SDS011;42403;53.160;6.368;2023-05-29T02:42:52;0.10;;;0.10;;
56507;SDS011;42403;53.160;6.368;2023-05-29T02:45:18;0.00;;;0.00;;
56507;SDS011;42403;53.160;6.368;2023-05-29T02:47:44;0.10;;;0.10;;
56507;SDS011;42403;53.160;6.368;2023-05-29T02:50:10;0.10;;;0.10;;
56507;SDS011;42403;53.160;6.368;2023-05-29T02:52:39;0.10;;;0.10;;
56507;SDS011;42403;53.160;6.368;2023-05-29T02:55:06;0.10;;;0.10;;
56507;SDS011;42403;53.160;6.368;2023-05-29T02:57:32;0.10;;;0.10;;
56507;SDS011;42403;53.160;6.368;2023-05-29T02:59:58;0.10;;;0.10;;
56507;SDS011;42403;53.160;6.368;2023-05-29T03:02:25;0.10;;;0.10;;
56507;SDS011;42403;53.160;6.368;2023-05-29T03:04:52;0.10;;;0.10;;
56507;SDS011;42403;53.160;6.368;2023-05-29T03:07:19;0.10;;;0.10;;
56507;SDS011;42403;53.160;6.368;2023-05-29T03:09:45;0.10;;;0.10;;
56507;SDS011;42403;53.160;6.368;2023-05-29T03:12:11;0.10;;;0.10;;
56507;SDS011;42403;53.160;6.368;2023-05-29T03:14:37;0.10;;;0.10;;
56507;SDS011;42403;53.160;6.368;2023-05-29T03:17:03;0.10;;;0.10;;
56507;SDS011;42403;53.160;6.368;2023-05-29T03:19:30;0.10;;;0.10;;
56507;SDS011;42403;53.160;6.368;2023-05-29T03:21:56;0.03;;;0.03;;
56507;SDS011;42403;53.160;6.368;2023-05-29T03:24:22;0.10;;;0.10;;
56507;SDS011;42403;53.160;6.368;2023-05-29T03:26:48;0.10;;;0.10;;
56507;SDS011;42403;53.160;6.368;2023-05-29T03:29:15;0.10;;;0.10;;
56507;SDS011;42403;53.160;6.368;2023-05-29T03:31:41;0.10;;;0.10;;
56507;SDS011;42403;53.160;6.368;2023-05-29T03:34:07;0.10;;;0.10;;
56507;SDS011;42403;53.160;6.368;2023-05-29T03:36:33;0.10;;;0.10;;
56507;SDS011;42403;53.160;6.368;2023-05-29T03:39:01;0.10;;;0.10;;
56507;SDS011;42403;53.160;6.368;2023-05-29T03:41:28;0.10;;;0.10;;
56507;SDS011;42403;53.160;6.368;2023-05-29T03:43:54;0.10;;;0.10;;
56507;SDS011;42403;53.160;6.368;2023-05-29T03:46:20;0.10;;;0.10;;
56507;SDS011;42403;53.160;6.368;2023-05-29T03:48:46;0.10;;;0.10;;
56507;SDS011;42403;53.160;6.368;2023-05-29T03:51:12;0.10;;;0.10;;
56507;SDS011;42403;53.160;6.368;2023-05-29T03:53:38;0.00;;;0.00;;
56507;SDS011;42403;53.160;6.368;2023-05-29T03:56:04;0.10;;;0.10;;
56507;SDS011;42403;53.160;6.368;2023-05-29T03:58:31;0.10;;;0.10;;
56507;SDS011;42403;53.160;6.368;2023-05-29T04:00:57;0.00;;;0.00;;
56507;SDS011;42403;53.160;6.368;2023-05-29T04:03:23;0.10;;;0.10;;
56507;SDS011;42403;53.160;6.368;2023-05-29T04:05:49;0.10;;;0.10;;
56507;SDS011;42403;53.160;6.368;2023-05-29T04:08:15;0.10;;;0.10;;
56507;SDS011;42403;53.160;6.368;2023-05-29T04:10:41;0.10;;;0.10;;
56507;SDS011;42403;53.160;6.368;2023-05-29T04:13:08;0.20;;;0.20;;
56507;SDS011;42403;53.160;6.368;2023-05-29T04:15:34;0.10;;;0.10;;
56507;SDS011;42403;53.160;6.368;2023-05-29T04:18:01;0.10;;;0.10;;
56507;SDS011;42403;53.160;6.368;2023-05-29T04:20:27;0.10;;;0.10;;
56507;SDS011;42403;53.160;6.368;2023-05-29T04:22:53;0.10;;;0.10;;
56507;SDS011;42403;53.160;6.368;2023-05-29T04:25:19;0.00;;;0.00;;
56507;SDS011;42403;53.160;6.368;2023-05-29T04:27:45;0.10;;;0.10;;
56507;SDS011;42403;53.160;6.368;2023-05-29T04:30:14;0.15;;;0.15;;
56507;SDS011;42403;53.160;6.368;2023-05-29T04:32:40;0.10;;;0.10;;
56507;SDS011;42403;53.160;6.368;2023-05-29T04:35:07;0.10;;;0.10;;
56507;SDS011;42403;53.160;6.368;2023-05-29T04:37:35;0.10;;;0.10;;
56507;SDS011;42403;53.160;6.368;2023-05-29T04:40:05;0.10;;;0.10;;
56507;SDS011;42403;53.160;6.368;2023-05-29T04:42:38;0.10;;;0.10;;
56507;SDS011;42403;53.160;6.368;2023-05-29T04:45:09;0.10;;;0.10;;
56507;SDS011;42403;53.160;6.368;2023-05-29T04:47:36;0.52;;;0.52;;
56507;SDS011;42403;53.160;6.368;2023-05-29T04:50:12;0.00;;;0.00;;
56507;SDS011;42403;53.160;6.368;2023-05-29T04:52:38;0.22;;;0.22;;
56507;SDS011;42403;53.160;6.368;2023-05-29T04:55:04;0.28;;;0.28;;
56507;SDS011;42403;53.160;6.368;2023-05-29T04:57:30;0.10;;;0.10;;
56507;SDS011;42403;53.160;6.368;2023-05-29T04:59:56;0.10;;;0.10;;
56507;SDS011;42403;53.160;6.368;2023-05-29T05:02:23;0.10;;;0.10;;
56507;SDS011;42403;53.160;6.368;2023-05-29T05:04:49;0.10;;;0.10;;
56507;SDS011;42403;53.160;6.368;2023-05-29T05:07:15;0.10;;;0.10;;
56507;SDS011;42403;53.160;6.368;2023-05-29T05:09:41;0.10;;;0.10;;
56507;SDS011;42403;53.160;6.368;2023-05-29T05:12:07;0.10;;;0.10;;
56507;SDS011;42403;53.160;6.368;2023-05-29T05:14:34;0.10;;;0.10;;
56507;SDS011;42403;53.160;6.368;2023-05-29T05:17:00;0.10;;;0.10;;
56507;SDS011;42403;53.160;6.368;2023-05-29T05:19:26;0.40;;;0.40;;
56507;SDS011;42403;53.160;6.368;2023-05-29T05:21:52;0.10;;;0.10;;
56507;SDS011;42403;53.160;6.368;2023-05-29T05:24:18;0.10;;;0.10;;
56507;SDS011;42403;53.160;6.368;2023-05-29T05:26:44;0.10;;;0.10;;
56507;SDS011;42403;53.160;6.368;2023-05-29T05:29:10;0.10;;;0.10;;
56507;SDS011;42403;53.160;6.368;2023-05-29T05:31:36;0.10;;;0.10;;
56507;SDS011;42403;53.160;6.368;2023-05-29T05:34:02;0.10;;;0.10;;
56507;SDS011;42403;53.160;6.368;2023-05-29T05:36:28;0.00;;;0.00;;
56507;SDS011;42403;53.160;6.368;2023-05-29T05:38:56;0.57;;;0.57;;
56507;SDS011;42403;53.160;6.368;2023-05-29T05:41:22;0.10;;;0.10;;
56507;SDS011;42403;53.160;6.368;2023-05-29T05:43:48;0.73;;;0.73;;
56507;SDS011;42403;53.160;6.368;2023-05-29T05:46:14;0.10;;;0.10;;
56507;SDS011;42403;53.160;6.368;2023-05-29T05:48:42;0.10;;;0.10;;
56507;SDS011;42403;53.160;6.368;2023-05-29T05:51:08;0.10;;;0.10;;
56507;SDS011;42403;53.160;6.368;2023-05-29T05:53:35;0.10;;;0.10;;
56507;SDS011;42403;53.160;6.368;2023-05-29T05:56:01;0.30;;;0.30;;
56507;SDS011;42403;53.160;6.368;2023-05-29T05:58:28;0.77;;;0.77;;
56507;SDS011;42403;53.160;6.368;2023-05-29T06:00:54;0.17;;;0.17;;
56507;SDS011;42403;53.160;6.368;2023-05-29T06:03:20;0.10;;;0.10;;
56507;SDS011;42403;53.160;6.368;2023-05-29T06:05:46;0.65;;;0.65;;
56507;SDS011;42403;53.160;6.368;2023-05-29T06:08:12;0.10;;;0.10;;
56507;SDS011;42403;53.160;6.368;2023-05-29T06:10:38;0.10;;;0.10;;
56507;SDS011;42403;53.160;6.368;2023-05-29T06:13:04;0.20;;;0.20;;
56507;SDS011;42403;53.160;6.368;2023-05-29T06:15:30;0.10;;;0.10;;
56507;SDS011;42403;53.160;6.368;2023-05-29T06:17:56;0.10;;;0.10;;
56507;SDS011;42403;53.160;6.368;2023-05-29T06:20:22;0.10;;;0.10;;
56507;SDS011;42403;53.160;6.368;2023-05-29T06:22:48;0.10;;;0.10;;
56507;SDS011;42403;53.160;6.368;2023-05-29T06:25:18;0.28;;;0.28;;
56507;SDS011;42403;53.160;6.368;2023-05-29T06:27:44;0.03;;;0.03;;
56507;SDS011;42403;53.160;6.368;2023-05-29T06:30:11;0.82;;;0.82;;
56507;SDS011;42403;53.160;6.368;2023-05-29T06:32:37;0.10;;;0.10;;
56507;SDS011;42403;53.160;6.368;2023-05-29T06:35:03;0.10;;;0.10;;
56507;SDS011;42403;53.160;6.368;2023-05-29T06:37:31;0.00;;;0.00;;
56507;SDS011;42403;53.160;6.368;2023-05-29T06:39:57;0.10;;;0.10;;
56507;SDS011;42403;53.160;6.368;2023-05-29T06:42:24;0.10;;;0.10;;
56507;SDS011;42403;53.160;6.368;2023-05-29T06:44:50;0.10;;;0.10;;
56507;SDS011;42403;53.160;6.368;2023-05-29T06:47:16;0.10;;;0.10;;
56507;SDS011;42403;53.160;6.368;2023-05-29T06:49:42;0.00;;;0.00;;
56507;SDS011;42403;53.160;6.368;2023-05-29T06:52:08;0.13;;;0.13;;
56507;SDS011;42403;53.160;6.368;2023-05-29T06:54:34;0.40;;;0.40;;
56507;SDS011;42403;53.160;6.368;2023-05-29T06:57:00;0.10;;;0.10;;
56507;SDS011;42403;53.160;6.368;2023-05-29T06:59:26;0.10;;;0.10;;
56507;SDS011;42403;53.160;6.368;2023-05-29T07:01:52;0.10;;;0.10;;
56507;SDS011;42403;53.160;6.368;2023-05-29T07:04:18;3.83;;;2.08;;
56507;SDS011;42403;53.160;6.368;2023-05-29T07:06:44;0.73;;;0.73;;
56507;SDS011;42403;53.160;6.368;2023-05-29T07:09:10;0.10;;;0.10;;
56507;SDS011;42403;53.160;6.368;2023-05-29T07:11:37;0.93;;;0.93;;
56507;SDS011;42403;53.160;6.368;2023-05-29T07:14:04;0.10;;;0.10;;
56507;SDS011;42403;53.160;6.368;2023-05-29T07:16:30;0.10;;;0.10;;
56507;SDS011;42403;53.160;6.368;2023-05-29T07:18:56;0.10;;;0.10;;
56507;SDS011;42403;53.160;6.368;2023-05-29T07:21:22;0.40;;;0.40;;
56507;SDS011;42403;53.160;6.368;2023-05-29T07:23:48;0.10;;;0.10;;
56507;SDS011;42403;53.160;6.368;2023-05-29T07:26:14;0.10;;;0.10;;
56507;SDS011;42403;53.160;6.368;2023-05-29T07:28:40;0.10;;;0.10;;
56507;SDS011;42403;53.160;6.368;2023-05-29T07:31:06;0.10;;;0.10;;
56507;SDS011;42403;53.160;6.368;2023-05-29T07:33:32;0.40;;;0.40;;
56507;SDS011;42403;53.160;6.368;2023-05-29T07:35:58;0.32;;;0.32;;
56507;SDS011;42403;53.160;6.368;2023-05-29T07:38:25;1.23;;;1.20;;
56507;SDS011;42403;53.160;6.368;2023-05-29T07:40:51;0.10;;;0.10;;
56507;SDS011;42403;53.160;6.368;2023-05-29T07:43:17;412.83;;;138.47;;
56507;SDS011;42403;53.160;6.368;2023-05-29T07:45:43;416.43;;;132.67;;
56507;SDS011;42403;53.160;6.368;2023-05-29T07:48:09;437.52;;;144.43;;
56507;SDS011;42403;53.160;6.368;2023-05-29T07:50:35;378.92;;;95.68;;
56507;SDS011;42403;53.160;6.368;2023-05-29T07:53:02;320.90;;;84.05;;
56507;SDS011;42403;53.160;6.368;2023-05-29T07:55:28;288.08;;;77.82;;
56507;SDS011;42403;53.160;6.368;2023-05-29T07:57:54;288.20;;;76.65;;
56507;SDS011;42403;53.160;6.368;2023-05-29T08:00:20;284.75;;;75.60;;
56507;SDS011;42403;53.160;6.368;2023-05-29T08:02:46;290.05;;;80.18;;
56507;SDS011;42403;53.160;6.368;2023-05-29T08:05:12;295.95;;;82.53;;
56507;SDS011;42403;53.160;6.368;2023-05-29T08:07:38;291.53;;;80.70;;
56507;SDS011;42403;53.160;6.368;2023-05-29T08:10:05;294.80;;;82.97;;
56507;SDS011;42403;53.160;6.368;2023-05-29T08:12:31;299.63;;;84.15;;
56507;SDS011;42403;53.160;6.368;2023-05-29T08:14:59;289.63;;;78.50;;
56507;SDS011;42403;53.160;6.368;2023-05-29T08:17:25;287.15;;;77.68;;
56507;SDS011;42403;53.160;6.368;2023-05-29T08:19:51;285.08;;;74.80;;
56507;SDS011;42403;53.160;6.368;2023-05-29T08:22:17;283.88;;;75.05;;
56507;SDS011;42403;53.160;6.368;2023-05-29T08:24:43;284.63;;;75.70;;
56507;SDS011;42403;53.160;6.368;2023-05-29T08:27:10;284.08;;;75.70;;
56507;SDS011;42403;53.160;6.368;2023-05-29T08:29:36;284.50;;;74.25;;
56507;SDS011;42403;53.160;6.368;2023-05-29T08:32:03;282.88;;;74.10;;
56507;SDS011;42403;53.160;6.368;2023-05-29T08:34:29;278.40;;;71.22;;
56507;SDS011;42403;53.160;6.368;2023-05-29T08:36:56;278.73;;;70.53;;
56507;SDS011;42403;53.160;6.368;2023-05-29T08:39:22;279.05;;;71.72;;
56507;SDS011;42403;53.160;6.368;2023-05-29T08:44:14;31.87;;;29.70;;
56507;SDS011;42403;53.160;6.368;2023-05-29T08:46:40;26.83;;;25.20;;
56507;SDS011;42403;53.160;6.368;2023-05-29T08:49:06;18.47;;;17.30;;
56507;SDS011;42403;53.160;6.368;2023-05-29T08:51:36;17.53;;;16.47;;
56507;SDS011;42403;53.160;6.368;2023-05-29T08:54:03;15.20;;;14.15;;
56507;SDS011;42403;53.160;6.368;2023-05-29T08:56:30;13.68;;;12.77;;
56507;SDS011;42403;53.160;6.368;2023-05-29T08:58:57;15.32;;;14.32;;
56507;SDS011;42403;53.160;6.368;2023-05-29T09:01:23;12.90;;;12.05;;
56507;SDS011;42403;53.160;6.368;2023-05-29T09:03:50;13.25;;;12.35;;
56507;SDS011;42403;53.160;6.368;2023-05-29T09:06:16;13.55;;;12.65;;
56507;SDS011;42403;53.160;6.368;2023-05-29T09:08:43;11.77;;;10.95;;
56507;SDS011;42403;53.160;6.368;2023-05-29T09:11:09;11.38;;;10.57;;
56507;SDS011;42403;53.160;6.368;2023-05-29T09:13:35;12.55;;;11.70;;
56507;SDS011;42403;53.160;6.368;2023-05-29T09:16:01;12.52;;;11.65;;
56507;SDS011;42403;53.160;6.368;2023-05-29T09:18:31;12.38;;;11.55;;
56507;SDS011;42403;53.160;6.368;2023-05-29T09:20:58;11.60;;;10.80;;
56507;SDS011;42403;53.160;6.368;2023-05-29T09:23:27;10.18;;;9.48;;
56507;SDS011;42403;53.160;6.368;2023-05-29T09:25:53;9.45;;;8.75;;
56507;SDS011;42403;53.160;6.368;2023-05-29T09:28:23;7.50;;;6.90;;
56507;SDS011;42403;53.160;6.368;2023-05-29T09:30:50;10.20;;;9.45;;
56507;SDS011;42403;53.160;6.368;2023-05-29T09:33:16;11.43;;;10.63;;
56507;SDS011;42403;53.160;6.368;2023-05-29T09:35:48;11.48;;;10.68;;
56507;SDS011;42403;53.160;6.368;2023-05-29T09:38:16;11.60;;;10.80;;
56507;SDS011;42403;53.160;6.368;2023-05-29T09:40:42;14.45;;;13.45;;
56507;SDS011;42403;53.160;6.368;2023-05-29T09:43:17;13.63;;;12.70;;
56507;SDS011;42403;53.160;6.368;2023-05-29T09:48:15;14.38;;;13.40;;
56507;SDS011;42403;53.160;6.368;2023-05-29T09:50:41;13.60;;;12.68;;
56507;SDS011;42403;53.160;6.368;2023-05-29T09:55:44;13.32;;;12.43;;
56507;SDS011;42403;53.160;6.368;2023-05-29T09:58:11;13.13;;;12.23;;
56507;SDS011;42403;53.160;6.368;2023-05-29T10:00:39;14.57;;;13.60;;
56507;SDS011;42403;53.160;6.368;2023-05-29T10:03:06;13.93;;;13.00;;
56507;SDS011;42403;53.160;6.368;2023-05-29T10:05:32;14.52;;;13.57;;
56507;SDS011;42403;53.160;6.368;2023-05-29T10:07:58;12.15;;;11.30;;
56507;SDS011;42403;53.160;6.368;2023-05-29T10:10:27;12.65;;;11.75;;
56507;SDS011;42403;53.160;6.368;2023-05-29T10:12:53;11.35;;;10.55;;
56507;SDS011;42403;53.160;6.368;2023-05-29T10:15:19;14.15;;;13.18;;
56507;SDS011;42403;53.160;6.368;2023-05-29T10:17:50;14.48;;;13.52;;
56507;SDS011;42403;53.160;6.368;2023-05-29T10:20:17;13.73;;;12.77;;
56507;SDS011;42403;53.160;6.368;2023-05-29T10:22:45;12.00;;;11.15;;
56507;SDS011;42403;53.160;6.368;2023-05-29T10:25:11;13.10;;;12.20;;
56507;SDS011;42403;53.160;6.368;2023-05-29T10:27:39;11.75;;;10.95;;
56507;SDS011;42403;53.160;6.368;2023-05-29T10:30:16;11.40;;;10.57;;
56507;SDS011;42403;53.160;6.368;2023-05-29T10:32:56;13.32;;;12.43;;
56507;SDS011;42403;53.160;6.368;2023-05-29T10:38:15;12.25;;;11.38;;
56507;SDS011;42403;53.160;6.368;2023-05-29T10:40:43;13.18;;;12.30;;
56507;SDS011;42403;53.160;6.368;2023-05-29T10:43:29;12.32;;;11.48;;
56507;SDS011;42403;53.160;6.368;2023-05-29T10:45:59;12.90;;;12.00;;
56507;SDS011;42403;53.160;6.368;2023-05-29T10:50:56;12.57;;;11.70;;
56507;SDS011;42403;53.160;6.368;2023-05-29T10:53:23;13.02;;;12.13;;
56507;SDS011;42403;53.160;6.368;2023-05-29T10:55:50;12.60;;;11.70;;
56507;SDS011;42403;53.160;6.368;2023-05-29T10:58:23;13.65;;;12.75;;
56507;SDS011;42403;53.160;6.368;2023-05-29T11:00:49;11.18;;;10.40;;
56507;SDS011;42403;53.160;6.368;2023-05-29T11:03:22;13.63;;;12.65;;
56507;SDS011;42403;53.160;6.368;2023-05-29T11:06:07;16.92;;;15.80;;
56507;SDS011;42403;53.160;6.368;2023-05-29T11:08:44;14.50;;;13.50;;
56507;SDS011;42403;53.160;6.368;2023-05-29T11:13:39;13.05;;;12.15;;
56507;SDS011;42403;53.160;6.368;2023-05-29T11:18:43;14.70;;;13.70;;
56507;SDS011;42403;53.160;6.368;2023-05-29T11:21:28;13.85;;;12.93;;
56507;SDS011;42403;53.160;6.368;2023-05-29T11:23:57;11.85;;;11.02;;
56507;SDS011;42403;53.160;6.368;2023-05-29T11:26:26;13.68;;;12.75;;
56507;SDS011;42403;53.160;6.368;2023-05-29T11:28:52;12.93;;;12.07;;
56507;SDS011;42403;53.160;6.368;2023-05-29T11:31:20;11.90;;;11.10;;
56507;SDS011;42403;53.160;6.368;2023-05-29T11:33:48;9.73;;;9.02;;
56507;SDS011;42403;53.160;6.368;2023-05-29T11:36:16;11.93;;;11.10;;
56507;SDS011;42403;53.160;6.368;2023-05-29T11:38:43;12.63;;;11.73;;
56507;SDS011;42403;53.160;6.368;2023-05-29T11:41:09;14.48;;;13.48;;
56507;SDS011;42403;53.160;6.368;2023-05-29T11:43:35;17.55;;;16.38;;
56507;SDS011;42403;53.160;6.368;2023-05-29T11:46:02;14.13;;;13.23;;
56507;SDS011;42403;53.160;6.368;2023-05-29T11:48:28;10.73;;;10.02;;
56507;SDS011;42403;53.160;6.368;2023-05-29T11:50:54;11.73;;;10.98;;
56507;SDS011;42403;53.160;6.368;2023-05-29T11:53:20;10.02;;;9.35;;
56507;SDS011;42403;53.160;6.368;2023-05-29T11:55:46;9.13;;;8.50;;
56507;SDS011;42403;53.160;6.368;2023-05-29T11:58:12;8.80;;;8.20;;
56507;SDS011;42403;53.160;6.368;2023-05-29T12:00:38;9.43;;;8.80;;
56507;SDS011;42403;53.160;6.368;2023-05-29T12:03:08;11.48;;;10.77;;
56507;SDS011;42403;53.160;6.368;2023-05-29T12:05:44;10.05;;;9.40;;
56507;SDS011;42403;53.160;6.368;2023-05-29T12:08:10;7.88;;;7.28;;
56507;SDS011;42403;53.160;6.368;2023-05-29T12:10:36;8.13;;;7.53;;
56507;SDS011;42403;53.160;6.368;2023-05-29T12:13:02;10.30;;;9.63;;
56507;SDS011;42403;53.160;6.368;2023-05-29T12:15:29;11.80;;;11.07;;
56507;SDS011;42403;53.160;6.368;2023-05-29T12:17:55;9.40;;;8.70;;
56507;SDS011;42403;53.160;6.368;2023-05-29T12:20:22;11.40;;;10.68;;
56507;SDS011;42403;53.160;6.368;2023-05-29T12:22:51;11.02;;;10.32;;
56507;SDS011;42403;53.160;6.368;2023-05-29T12:25:18;12.55;;;11.75;;
56507;SDS011;42403;53.160;6.368;2023-05-29T12:27:45;9.80;;;9.10;;
56507;SDS011;42403;53.160;6.368;2023-05-29T12:30:12;13.00;;;12.07;;
56507;SDS011;42403;53.160;6.368;2023-05-29T12:32:43;11.23;;;10.50;;
56507;SDS011;42403;53.160;6.368;2023-05-29T12:35:17;12.63;;;11.73;;
56507;SDS011;42403;53.160;6.368;2023-05-29T12:37:44;13.40;;;12.57;;
56507;SDS011;42403;53.160;6.368;2023-05-29T12:40:18;13.05;;;12.13;;
56507;SDS011;42403;53.160;6.368;2023-05-29T12:42:45;12.98;;;12.15;;
56507;SDS011;42403;53.160;6.368;2023-05-29T12:45:11;11.75;;;10.93;;
56507;SDS011;42403;53.160;6.368;2023-05-29T12:47:37;10.52;;;9.82;;
56507;SDS011;42403;53.160;6.368;2023-05-29T12:50:25;10.77;;;10.00;;
56507;SDS011;42403;53.160;6.368;2023-05-29T12:53:00;9.63;;;8.93;;
56507;SDS011;42403;53.160;6.368;2023-05-29T12:55:27;7.82;;;7.22;;
56507;SDS011;42403;53.160;6.368;2023-05-29T12:57:54;8.05;;;7.45;;
56507;SDS011;42403;53.160;6.368;2023-05-29T13:00:21;8.07;;;7.47;;
56507;SDS011;42403;53.160;6.368;2023-05-29T13:02:47;11.55;;;10.52;;
56507;SDS011;42403;53.160;6.368;2023-05-29T13:05:14;8.73;;;7.97;;
56507;SDS011;42403;53.160;6.368;2023-05-29T13:07:41;9.93;;;9.00;;
56507;SDS011;42403;53.160;6.368;2023-05-29T13:10:08;11.45;;;10.45;;
56507;SDS011;42403;53.160;6.368;2023-05-29T13:12:34;7.57;;;6.97;;
56507;SDS011;42403;53.160;6.368;2023-05-29T13:15:01;9.48;;;8.68;;
56507;SDS011;42403;53.160;6.368;2023-05-29T13:17:27;7.72;;;7.10;;
56507;SDS011;42403;53.160;6.368;2023-05-29T13:19:53;10.73;;;8.38;;
56507;SDS011;42403;53.160;6.368;2023-05-29T13:22:19;9.75;;;8.95;;
56507;SDS011;42403;53.160;6.368;2023-05-29T13:24:45;7.88;;;7.28;;
56507;SDS011;42403;53.160;6.368;2023-05-29T13:27:11;10.10;;;9.38;;
56507;SDS011;42403;53.160;6.368;2023-05-29T13:29:42;10.00;;;9.35;;
56507;SDS011;42403;53.160;6.368;2023-05-29T13:32:08;9.55;;;8.85;;
56507;SDS011;42403;53.160;6.368;2023-05-29T13:34:34;9.75;;;9.13;;
56507;SDS011;42403;53.160;6.368;2023-05-29T13:37:00;10.60;;;9.82;;
56507;SDS011;42403;53.160;6.368;2023-05-29T13:39:27;9.27;;;8.57;;
56507;SDS011;42403;53.160;6.368;2023-05-29T13:41:53;13.15;;;12.25;;
56507;SDS011;42403;53.160;6.368;2023-05-29T13:44:20;14.43;;;13.43;;
56507;SDS011;42403;53.160;6.368;2023-05-29T13:46:46;12.02;;;11.27;;
56507;SDS011;42403;53.160;6.368;2023-05-29T13:49:12;10.27;;;9.52;;
56507;SDS011;42403;53.160;6.368;2023-05-29T13:51:38;7.78;;;7.18;;
56507;SDS011;42403;53.160;6.368;2023-05-29T13:54:04;11.23;;;10.23;;
56507;SDS011;42403;53.160;6.368;2023-05-29T13:56:30;8.98;;;7.35;;
56507;SDS011;42403;53.160;6.368;2023-05-29T13:58:56;11.68;;;10.73;;
56507;SDS011;42403;53.160;6.368;2023-05-29T14:01:28;8.95;;;8.18;;
56507;SDS011;42403;53.160;6.368;2023-05-29T14:03:55;11.63;;;10.80;;
56507;SDS011;42403;53.160;6.368;2023-05-29T14:06:21;11.93;;;11.13;;
56507;SDS011;42403;53.160;6.368;2023-05-29T14:08:47;11.40;;;10.65;;
56507;SDS011;42403;53.160;6.368;2023-05-29T14:11:13;12.15;;;11.35;;
56507;SDS011;42403;53.160;6.368;2023-05-29T14:13:39;11.00;;;10.23;;
56507;SDS011;42403;53.160;6.368;2023-05-29T14:16:05;11.35;;;10.57;;
56507;SDS011;42403;53.160;6.368;2023-05-29T14:18:31;12.60;;;11.70;;
56507;SDS011;42403;53.160;6.368;2023-05-29T14:20:57;9.57;;;8.95;;
56507;SDS011;42403;53.160;6.368;2023-05-29T14:23:23;12.98;;;12.07;;
56507;SDS011;42403;53.160;6.368;2023-05-29T14:25:49;11.45;;;10.70;;
56507;SDS011;42403;53.160;6.368;2023-05-29T14:28:18;13.10;;;12.20;;
56507;SDS011;42403;53.160;6.368;2023-05-29T14:30:45;13.25;;;12.35;;
56507;SDS011;42403;53.160;6.368;2023-05-29T14:33:11;16.17;;;15.07;;
56507;SDS011;42403;53.160;6.368;2023-05-29T14:35:38;10.00;;;9.30;;
56507;SDS011;42403;53.160;6.368;2023-05-29T14:38:04;10.40;;;9.68;;
56507;SDS011;42403;53.160;6.368;2023-05-29T14:40:30;9.75;;;9.05;;
56507;SDS011;42403;53.160;6.368;2023-05-29T14:42:56;10.60;;;9.88;;
56507;SDS011;42403;53.160;6.368;2023-05-29T14:45:22;12.27;;;11.40;;
56507;SDS011;42403;53.160;6.368;2023-05-29T14:47:48;10.27;;;9.55;;
56507;SDS011;42403;53.160;6.368;2023-05-29T14:50:14;12.95;;;12.05;;
56507;SDS011;42403;53.160;6.368;2023-05-29T14:52:41;12.75;;;11.90;;
56507;SDS011;42403;53.160;6.368;2023-05-29T14:55:07;13.00;;;12.18;;
56507;SDS011;42403;53.160;6.368;2023-05-29T14:57:33;9.35;;;8.70;;
56507;SDS011;42403;53.160;6.368;2023-05-29T15:00:03;12.05;;;11.20;;